sensor_id;sensor_type;location;lat;lon;timestamp;temperature;humidity
1103;DHT22;538;42.654;23.376;2023-01-09T19:37:00;26.70;15.80
1103;DHT22;538;42.654;23.376;2023-01-09T19:39:27;26.80;16.30
1103;DHT22;538;42.654;23.376;2023-01-09T19:41:55;26.70;16.50
1103;DHT22;538;42.654;23.376;2023-01-09T19:44:22;26.60;16.70
1103;DHT22;538;42.654;23.376;2023-01-09T19:46:49;26.60;16.70
1103;DHT22;538;42.654;23.376;2023-01-09T19:49:16;26.50;17.30
1103;DHT22;538;42.654;23.376;2023-01-09T19:51:44;26.50;19.70
1103;DHT22;538;42.654;23.376;2023-01-09T19:54:13;26.50;18.10
1103;DHT22;538;42.654;23.376;2023-01-09T19:56:40;26.50;17.90
1103;DHT22;538;42.654;23.376;2023-01-09T19:59:10;26.40;18.10
1103;DHT22;538;42.654;23.376;2023-01-09T20:01:39;26.30;18.30
1103;DHT22;538;42.654;23.376;2023-01-09T20:04:08;26.30;18.70
1103;DHT22;538;42.654;23.376;2023-01-09T20:06:40;26.20;18.80
1103;DHT22;538;42.654;23.376;2023-01-09T20:09:08;26.10;18.80
1103;DHT22;538;42.654;23.376;2023-01-09T20:11:38;26.10;18.90
1103;DHT22;538;42.654;23.376;2023-01-09T20:14:06;22.10;1.00
1103;DHT22;538;42.654;23.376;2023-01-09T20:16:33;21.70;1.00
1103;DHT22;538;42.654;23.376;2023-01-09T20:19:01;18.80;1.00
1103;DHT22;538;42.654;23.376;2023-01-09T20:21:31;16.50;1.90
1103;DHT22;538;42.654;23.376;2023-01-09T20:23:59;14.60;4.70
1103;DHT22;538;42.654;23.376;2023-01-09T20:26:27;13.10;7.00
1103;DHT22;538;42.654;23.376;2023-01-09T20:28:56;11.80;9.30
1103;DHT22;538;42.654;23.376;2023-01-09T20:31:26;10.90;11.80
1103;DHT22;538;42.654;23.376;2023-01-09T20:33:56;10.00;13.90
1103;DHT22;538;42.654;23.376;2023-01-09T20:36:24;9.30;16.80
1103;DHT22;538;42.654;23.376;2023-01-09T20:38:55;8.70;19.30
1103;DHT22;538;42.654;23.376;2023-01-09T20:41:22;8.20;21.20
1103;DHT22;538;42.654;23.376;2023-01-09T20:43:51;7.80;23.10
1103;DHT22;538;42.654;23.376;2023-01-09T20:46:21;7.50;24.10
1103;DHT22;538;42.654;23.376;2023-01-09T20:48:48;7.20;26.30
1103;DHT22;538;42.654;23.376;2023-01-09T20:51:15;6.80;28.50
1103;DHT22;538;42.654;23.376;2023-01-09T20:53:43;6.70;31.00
1103;DHT22;538;42.654;23.376;2023-01-09T20:56:11;5.20;31.10
1103;DHT22;538;42.654;23.376;2023-01-09T20:58:38;6.40;33.80
1103;DHT22;538;42.654;23.376;2023-01-09T21:01:08;6.40;35.40
1103;DHT22;538;42.654;23.376;2023-01-09T21:03:38;6.30;36.30
1103;DHT22;538;42.654;23.376;2023-01-09T21:06:06;6.30;38.10
1103;DHT22;538;42.654;23.376;2023-01-09T21:08:34;6.20;38.50
1103;DHT22;538;42.654;23.376;2023-01-09T21:11:03;6.20;39.60
1103;DHT22;538;42.654;23.376;2023-01-09T21:13:30;6.20;40.30
1103;DHT22;538;42.654;23.376;2023-01-09T21:16:02;6.10;41.90
1103;DHT22;538;42.654;23.376;2023-01-09T21:18:30;6.10;42.10
1103;DHT22;538;42.654;23.376;2023-01-09T21:21:01;6.10;42.10
1103;DHT22;538;42.654;23.376;2023-01-09T21:23:28;6.00;43.80
1103;DHT22;538;42.654;23.376;2023-01-09T21:25:55;6.00;44.10
1103;DHT22;538;42.654;23.376;2023-01-09T21:28:24;5.90;44.00
1103;DHT22;538;42.654;23.376;2023-01-09T21:30:52;5.90;44.80
1103;DHT22;538;42.654;23.376;2023-01-09T21:33:19;5.90;45.70
1103;DHT22;538;42.654;23.376;2023-01-09T21:35:51;5.90;46.40
1103;DHT22;538;42.654;23.376;2023-01-09T21:38:20;5.80;46.70
1103;DHT22;538;42.654;23.376;2023-01-09T21:40:48;5.90;47.20
1103;DHT22;538;42.654;23.376;2023-01-09T21:43:23;5.80;47.60
1103;DHT22;538;42.654;23.376;2023-01-09T21:46:11;5.80;47.60
1103;DHT22;538;42.654;23.376;2023-01-09T21:48:56;5.90;46.80
1103;DHT22;538;42.654;23.376;2023-01-09T21:51:23;5.90;45.40
1103;DHT22;538;42.654;23.376;2023-01-09T21:53:51;5.80;45.50
1103;DHT22;538;42.654;23.376;2023-01-09T21:56:18;5.90;46.30
1103;DHT22;538;42.654;23.376;2023-01-09T21:58:46;5.90;46.70
1103;DHT22;538;42.654;23.376;2023-01-09T22:01:14;5.90;46.90
1103;DHT22;538;42.654;23.376;2023-01-09T22:03:41;5.90;46.80
1103;DHT22;538;42.654;23.376;2023-01-09T22:06:08;5.90;47.00
1103;DHT22;538;42.654;23.376;2023-01-09T22:08:35;5.80;46.10
1103;DHT22;538;42.654;23.376;2023-01-09T22:11:04;5.80;46.30
1103;DHT22;538;42.654;23.376;2023-01-09T22:13:31;5.80;46.20
1103;DHT22;538;42.654;23.376;2023-01-09T22:16:02;5.80;46.50
1103;DHT22;538;42.654;23.376;2023-01-09T22:18:29;5.70;46.90
1103;DHT22;538;42.654;23.376;2023-01-09T22:20:57;5.80;47.10
1103;DHT22;538;42.654;23.376;2023-01-09T22:23:24;5.00;46.90
1103;DHT22;538;42.654;23.376;2023-01-09T22:25:51;5.70;48.30
1103;DHT22;538;42.654;23.376;2023-01-09T22:28:20;5.70;48.30
1103;DHT22;538;42.654;23.376;2023-01-09T22:30:48;5.70;48.60
1103;DHT22;538;42.654;23.376;2023-01-09T22:33:15;5.70;48.50
1103;DHT22;538;42.654;23.376;2023-01-09T22:35:43;5.70;49.30
1103;DHT22;538;42.654;23.376;2023-01-09T22:38:10;5.70;49.40
1103;DHT22;538;42.654;23.376;2023-01-09T22:40:38;5.80;49.20
1103;DHT22;538;42.654;23.376;2023-01-09T22:43:05;5.60;48.50
1103;DHT22;538;42.654;23.376;2023-01-09T22:45:34;5.60;48.20
1103;DHT22;538;42.654;23.376;2023-01-09T22:48:01;5.50;48.10
1103;DHT22;538;42.654;23.376;2023-01-09T22:50:28;5.50;48.50
1103;DHT22;538;42.654;23.376;2023-01-09T22:52:55;5.60;48.50
1103;DHT22;538;42.654;23.376;2023-01-09T22:55:23;5.60;48.30
1103;DHT22;538;42.654;23.376;2023-01-09T22:57:50;5.50;48.30
1103;DHT22;538;42.654;23.376;2023-01-09T23:00:17;5.60;48.70
1103;DHT22;538;42.654;23.376;2023-01-09T23:02:46;5.60;49.10
1103;DHT22;538;42.654;23.376;2023-01-09T23:05:13;5.70;49.20
1103;DHT22;538;42.654;23.376;2023-01-09T23:07:40;5.70;48.70
1103;DHT22;538;42.654;23.376;2023-01-09T23:10:08;5.60;48.80
1103;DHT22;538;42.654;23.376;2023-01-09T23:12:36;5.70;47.80
1103;DHT22;538;42.654;23.376;2023-01-09T23:15:03;5.70;47.40
1103;DHT22;538;42.654;23.376;2023-01-09T23:17:33;5.70;47.80
1103;DHT22;538;42.654;23.376;2023-01-09T23:20:02;5.70;48.00
1103;DHT22;538;42.654;23.376;2023-01-09T23:22:29;5.60;48.30
1103;DHT22;538;42.654;23.376;2023-01-09T23:24:56;5.60;48.30
1103;DHT22;538;42.654;23.376;2023-01-09T23:27:23;5.60;48.30
1103;DHT22;538;42.654;23.376;2023-01-09T23:29:50;5.60;48.30
1103;DHT22;538;42.654;23.376;2023-01-09T23:32:17;5.50;48.50
1103;DHT22;538;42.654;23.376;2023-01-09T23:34:45;5.40;49.30
1103;DHT22;538;42.654;23.376;2023-01-09T23:37:15;5.40;49.60
1103;DHT22;538;42.654;23.376;2023-01-09T23:39:42;5.50;50.10
1103;DHT22;538;42.654;23.376;2023-01-09T23:42:10;5.30;49.50
1103;DHT22;538;42.654;23.376;2023-01-09T23:44:54;5.30;50.20
1103;DHT22;538;42.654;23.376;2023-01-09T23:47:21;5.30;50.80
1103;DHT22;538;42.654;23.376;2023-01-09T23:49:49;5.30;51.40
1103;DHT22;538;42.654;23.376;2023-01-09T23:52:17;5.30;51.60
1103;DHT22;538;42.654;23.376;2023-01-09T23:54:44;5.40;51.30
1103;DHT22;538;42.654;23.376;2023-01-09T23:57:11;5.30;50.90
1103;DHT22;538;42.654;23.376;2023-01-09T23:59:38;5.30;51.00
